Time;durP1;ratioP1;P1;durP2;ratioP2;P2;SDS_P1;SDS_P2;PMS_P1;PMS_P2;Temp;Humidity;BMP_temperature;BMP_pressure;BME280_temperature;BME280_humidity;BME280_pressure;Samples;Min_cycle;Max_cycle;Signal;HPM_P1;HPM_P2
2022/03/20 00:00:36;;;;;;;16.40;10.20;;;5.30;37.70;;;;;;5070997;28;20213;-67
2022/03/20 00:03:06;;;;;;;17.07;9.97;;;5.30;37.80;;;;;;5069027;28;20297;-67
2022/03/20 00:05:34;;;;;;;15.30;10.40;;;5.30;37.90;;;;;;5066922;28;20577;-68
2022/03/20 00:08:01;;;;;;;19.30;11.03;;;5.30;38.00;;;;;;5064647;28;20201;-68
2022/03/20 00:10:30;;;;;;;18.90;12.63;;;5.20;37.90;;;;;;5063387;28;20293;-67
2022/03/20 00:12:56;;;;;;;18.33;11.70;;;5.20;38.00;;;;;;5072500;28;20206;-67
2022/03/20 00:15:23;;;;;;;21.73;13.50;;;5.20;37.90;;;;;;5063968;28;20228;-68
2022/03/20 00:17:50;;;;;;;22.73;12.10;;;5.20;37.90;;;;;;5069279;28;20209;-65
2022/03/20 00:20:17;;;;;;;25.77;13.33;;;5.10;37.90;;;;;;5064698;28;20213;-66
2022/03/20 00:22:44;;;;;;;25.90;13.93;;;5.10;38.10;;;;;;5066662;28;20737;-66
2022/03/20 00:25:11;;;;;;;28.87;14.90;;;5.00;38.20;;;;;;5072912;28;20204;-65
2022/03/20 00:27:40;;;;;;;23.37;14.43;;;5.00;38.40;;;;;;5062984;28;20206;-65
2022/03/20 00:30:07;;;;;;;26.97;14.97;;;5.00;38.50;;;;;;5062272;28;20213;-65
2022/03/20 00:32:34;;;;;;;23.97;13.80;;;4.90;38.50;;;;;;5065258;28;20300;-65
2022/03/20 00:35:01;;;;;;;25.70;14.13;;;4.90;38.70;;;;;;5067496;28;20590;-65
2022/03/20 00:37:28;;;;;;;24.00;13.93;;;4.80;38.70;;;;;;5063769;28;20292;-65
2022/03/20 00:39:55;;;;;;;28.47;14.87;;;4.80;38.70;;;;;;5058714;28;20296;-64
2022/03/20 00:42:22;;;;;;;28.43;15.63;;;4.80;38.70;;;;;;5066564;28;20646;-63
2022/03/20 00:44:50;;;;;;;23.73;14.50;;;4.70;38.70;;;;;;5071360;28;20202;-67
2022/03/20 00:47:18;;;;;;;26.13;15.20;;;4.70;38.70;;;;;;5065785;28;20201;-66
2022/03/20 00:49:44;;;;;;;26.97;15.77;;;4.70;38.70;;;;;;5074371;28;20213;-66
2022/03/20 00:52:11;;;;;;;23.00;13.97;;;4.70;38.70;;;;;;5072666;28;20205;-67
2022/03/20 00:54:38;;;;;;;25.30;13.87;;;4.60;38.60;;;;;;5061517;28;20312;-66
2022/03/20 00:57:05;;;;;;;28.03;14.80;;;4.60;38.50;;;;;;5075031;28;20212;-68
2022/03/20 00:59:32;;;;;;;23.10;13.43;;;4.60;38.50;;;;;;5070339;28;20292;-67
2022/03/20 01:02:00;;;;;;;22.93;13.83;;;4.60;38.50;;;;;;5068647;28;20559;-69
2022/03/20 01:04:27;;;;;;;26.07;14.13;;;4.60;38.60;;;;;;5057539;28;20244;-67
2022/03/20 01:06:58;;;;;;;23.77;14.27;;;4.60;38.60;;;;;;5071692;28;20647;-65
2022/03/20 01:09:25;;;;;;;22.47;13.47;;;4.60;38.70;;;;;;5068759;28;20621;-67
2022/03/20 01:11:51;;;;;;;27.33;14.90;;;4.50;38.60;;;;;;5062182;28;20634;-67
2022/03/20 01:14:18;;;;;;;23.30;14.47;;;4.50;38.80;;;;;;5062384;28;20197;-68
2022/03/20 01:16:46;;;;;;;23.30;14.20;;;4.40;38.80;;;;;;5061602;28;20524;-66
2022/03/20 01:19:14;;;;;;;27.17;15.53;;;4.40;39.00;;;;;;5062250;28;20293;-66
2022/03/20 01:21:42;;;;;;;24.50;14.33;;;4.30;39.00;;;;;;5061624;28;20253;-65
2022/03/20 01:24:10;;;;;;;25.03;14.73;;;4.30;39.10;;;;;;5063392;28;20209;-67
2022/03/20 01:26:37;;;;;;;24.83;14.83;;;4.20;39.20;;;;;;5056647;28;20868;-66
2022/03/20 01:29:06;;;;;;;29.33;16.73;;;4.30;39.40;;;;;;5060562;28;20288;-66
2022/03/20 01:31:33;;;;;;;29.70;16.13;;;4.20;39.50;;;;;;5071938;28;20209;-66
2022/03/20 01:33:59;;;;;;;29.47;15.57;;;4.20;39.60;;;;;;5065248;28;20213;-67
2022/03/20 01:36:28;;;;;;;27.37;15.17;;;4.10;40.20;;;;;;5067114;28;20237;-64
2022/03/20 01:38:55;;;;;;;30.07;16.90;;;4.10;39.70;;;;;;5069275;28;20296;-65
2022/03/20 01:41:22;;;;;;;27.37;15.93;;;4.10;40.50;;;;;;5072355;28;20719;-65
2022/03/20 01:43:50;;;;;;;29.33;16.67;;;4.00;40.00;;;;;;5069572;28;20209;-65
2022/03/20 01:46:17;;;;;;;28.67;16.73;;;4.00;40.10;;;;;;5071355;28;20211;-66
2022/03/20 01:48:44;;;;;;;28.93;17.03;;;3.90;40.20;;;;;;5071616;28;20237;-65
2022/03/20 01:51:11;;;;;;;28.73;16.37;;;3.90;40.30;;;;;;5070615;28;20268;-63
2022/03/20 01:53:40;;;;;;;32.33;17.30;;;3.90;40.40;;;;;;5058981;28;20206;-64
2022/03/20 01:56:07;;;;;;;29.47;17.97;;;3.90;40.60;;;;;;5072213;28;20232;-66
2022/03/20 01:58:34;;;;;;;29.33;17.20;;;3.90;40.60;;;;;;5072352;28;20224;-65
2022/03/20 02:01:02;;;;;;;29.77;17.47;;;3.80;40.80;;;;;;5067121;28;20201;-63
2022/03/20 02:03:30;;;;;;;28.70;17.43;;;3.80;40.90;;;;;;5066794;28;20322;-64
2022/03/20 02:05:57;;;;;;;33.47;18.67;;;3.70;41.10;;;;;;5072207;28;20208;-65
2022/03/20 02:08:27;;;;;;;25.47;15.83;;;3.70;41.20;;;;;;5070596;28;20244;-64
2022/03/20 02:10:57;;;;;;;30.80;16.47;;;3.70;41.30;;;;;;5073907;28;20201;-64
2022/03/20 02:13:26;;;;;;;28.07;16.27;;;3.60;41.30;;;;;;5064606;28;20619;-63
2022/03/20 02:15:53;;;;;;;30.07;17.17;;;3.70;41.40;;;;;;5063083;28;20225;-64
2022/03/20 02:18:20;;;;;;;27.20;16.33;;;3.70;42.10;;;;;;5058556;28;20296;-64
2022/03/20 02:20:48;;;;;;;29.33;16.03;;;3.60;41.40;;;;;;5064404;28;20221;-64
2022/03/20 02:23:17;;;;;;;25.70;15.60;;;3.60;41.40;;;;;;5066720;28;20209;-64
2022/03/20 02:25:48;;;;;;;29.87;16.67;;;3.60;41.40;;;;;;5066156;28;20197;-65
2022/03/20 02:28:16;;;;;;;25.03;15.03;;;3.60;41.40;;;;;;5073376;28;20211;-65
2022/03/20 02:30:43;;;;;;;24.50;15.53;;;3.60;41.40;;;;;;5071651;28;20711;-64
2022/03/20 02:33:10;;;;;;;25.17;15.83;;;3.60;41.40;;;;;;5073185;28;20240;-64
2022/03/20 02:35:39;;;;;;;23.57;13.77;;;3.60;41.40;;;;;;5072247;28;20767;-64
2022/03/20 02:38:09;;;;;;;20.67;12.67;;;3.60;41.30;;;;;;5066507;28;20206;-67
2022/03/20 02:40:38;;;;;;;26.87;14.07;;;3.60;40.90;;;;;;5068049;28;20244;-66
2022/03/20 02:43:07;;;;;;;20.93;13.33;;;3.70;40.70;;;;;;5071872;28;20278;-67
2022/03/20 02:45:34;;;;;;;24.40;13.33;;;3.70;40.50;;;;;;5061665;28;20201;-66
2022/03/20 02:48:04;;;;;;;22.40;13.40;;;3.70;41.10;;;;;;5060862;28;20201;-67
2022/03/20 02:50:33;;;;;;;20.63;13.13;;;3.70;40.50;;;;;;5068509;28;20213;-67
2022/03/20 02:53:02;;;;;;;28.17;14.30;;;3.80;40.60;;;;;;5072923;28;20236;-67
2022/03/20 02:55:30;;;;;;;23.63;13.80;;;3.80;40.70;;;;;;5068035;28;20224;-67
2022/03/20 02:58:01;;;;;;;24.03;13.80;;;3.70;40.80;;;;;;5070094;28;20757;-66
2022/03/20 03:00:30;;;;;;;25.77;14.00;;;3.70;40.60;;;;;;5069111;28;20239;-66
2022/03/20 03:02:58;;;;;;;23.10;13.90;;;3.70;40.50;;;;;;5073033;28;20300;-66
2022/03/20 03:05:27;;;;;;;25.50;13.87;;;3.70;40.50;;;;;;5067101;28;20215;-66
2022/03/20 03:11:00;;;;;;;23.33;15.27;;;3.60;40.60;;;;;;5075389;28;20200;-67
2022/03/20 03:13:30;;;;;;;25.53;14.77;;;3.50;40.60;;;;;;5076789;28;20201;-66
2022/03/20 03:16:00;;;;;;;26.90;15.03;;;3.50;40.70;;;;;;5065004;28;20324;-68
2022/03/20 03:18:27;;;;;;;26.23;14.43;;;3.50;40.80;;;;;;5068655;28;20197;-66
2022/03/20 03:20:54;;;;;;;23.63;14.53;;;3.40;40.80;;;;;;5073789;28;20311;-67
2022/03/20 03:23:24;;;;;;;24.17;15.00;;;3.40;41.00;;;;;;5073996;28;20329;-66
2022/03/20 03:25:52;;;;;;;26.10;15.77;;;3.40;41.10;;;;;;5067252;28;20193;-66
2022/03/20 03:28:19;;;;;;;32.83;19.13;;;3.30;41.30;;;;;;5059988;28;20296;-67
2022/03/20 03:30:49;;;;;;;37.07;20.20;;;3.30;41.90;;;;;;5064268;28;20216;-67
2022/03/20 03:33:19;;;;;;;34.57;20.23;;;3.20;42.70;;;;;;5074821;28;20288;-66
2022/03/20 03:35:51;;;;;;;36.70;20.83;;;3.20;43.40;;;;;;5067162;28;20296;-66
2022/03/20 03:38:19;;;;;;;33.90;20.70;;;3.10;44.00;;;;;;5067730;28;20200;-66
2022/03/20 03:40:48;;;;;;;40.67;20.47;;;3.10;44.50;;;;;;5069448;28;20733;-67
2022/03/20 03:43:17;;;;;;;40.20;21.53;;;3.00;44.90;;;;;;5063443;28;20422;-67
2022/03/20 03:45:44;;;;;;;38.03;21.97;;;3.00;45.00;;;;;;5064205;28;20289;-66
2022/03/20 03:48:13;;;;;;;37.80;21.70;;;3.00;45.30;;;;;;5070262;28;20197;-67
2022/03/20 03:50:42;;;;;;;39.73;23.10;;;3.00;45.40;;;;;;5072610;28;20251;-67
2022/03/20 03:53:10;;;;;;;35.03;20.93;;;3.00;45.60;;;;;;5068066;28;20243;-67
2022/03/20 03:55:38;;;;;;;36.93;20.47;;;2.90;45.60;;;;;;5074524;28;20737;-66
2022/03/20 03:58:06;;;;;;;36.93;20.77;;;3.00;45.70;;;;;;5071212;28;20297;-67
2022/03/20 04:00:34;;;;;;;33.97;20.90;;;2.90;45.80;;;;;;5060321;28;20288;-66
2022/03/20 04:03:01;;;;;;;36.03;20.90;;;2.90;46.20;;;;;;5069066;28;20268;-66
2022/03/20 04:05:30;;;;;;;36.43;21.30;;;2.90;46.30;;;;;;5073912;28;20252;-67
2022/03/20 04:07:57;;;;;;;37.37;21.33;;;2.80;46.30;;;;;;5070453;28;20214;-67
2022/03/20 04:10:25;;;;;;;37.50;21.57;;;2.90;46.50;;;;;;5073381;28;20209;-64
2022/03/20 04:12:52;;;;;;;36.07;20.53;;;2.80;46.60;;;;;;5075596;28;20268;-66
2022/03/20 04:15:23;;;;;;;32.17;19.47;;;2.80;46.40;;;;;;5072814;28;20288;-66
2022/03/20 04:17:50;;;;;;;35.30;20.10;;;2.90;46.30;;;;;;5067701;28;20274;-67
2022/03/20 04:20:17;;;;;;;35.37;18.93;;;2.80;46.10;;;;;;5062197;28;20242;-68
2022/03/20 04:23:42;;;;;;;31.27;18.37;;;2.80;45.90;;;;;;5073608;28;20658;-66
2022/03/20 04:25:32;;;;;;;32.63;18.17;;;2.80;45.70;;;;;;5064496;28;20212;-69
2022/03/20 04:28:00;;;;;;;34.10;16.03;;;2.80;45.40;;;;;;5071081;28;20289;-66
2022/03/20 04:30:28;;;;;;;28.33;16.23;;;2.70;45.10;;;;;;5069703;28;20745;-67
2022/03/20 04:32:56;;;;;;;27.97;15.87;;;2.70;44.70;;;;;;5062410;28;20784;-67
2022/03/20 04:35:24;;;;;;;27.10;14.77;;;2.70;44.50;;;;;;5074910;28;20271;-66
2022/03/20 04:37:53;;;;;;;25.80;15.60;;;2.70;44.40;;;;;;5073926;28;20202;-68
2022/03/20 04:40:20;;;;;;;31.90;15.63;;;2.70;44.20;;;;;;5063904;28;20296;-66
2022/03/20 04:42:49;;;;;;;26.63;14.70;;;2.70;44.00;;;;;;5073637;28;20271;-66
2022/03/20 04:45:16;;;;;;;29.40;15.40;;;2.80;43.90;;;;;;5062208;28;20209;-67
2022/03/20 04:58:43;;;;;;;22.40;12.70;;;2.90;43.70;;;;;;5070576;28;20283;-65
2022/03/20 05:01:10;;;;;;;21.70;13.37;;;3.00;43.10;;;;;;5064902;28;20227;-67
2022/03/20 05:03:37;;;;;;;23.70;13.37;;;3.00;42.90;;;;;;5075682;28;20201;-66
2022/03/20 05:06:05;;;;;;;21.77;13.10;;;3.00;42.50;;;;;;5075958;28;20270;-66
2022/03/20 05:08:35;;;;;;;18.97;12.07;;;3.00;42.10;;;;;;5074873;28;20231;-67
2022/03/20 05:13:47;;;;;;;22.90;13.77;;;3.00;42.10;;;;;;5071984;28;20282;-67
2022/03/20 05:16:13;;;;;;;24.47;12.37;;;3.10;42.20;;;;;;5073234;28;20282;-67
2022/03/20 05:18:40;;;;;;;23.70;11.97;;;3.10;42.20;;;;;;5072290;28;20295;-66
2022/03/20 05:21:10;;;;;;;25.37;13.30;;;3.20;42.20;;;;;;5076065;28;20605;-66
2022/03/20 05:23:39;;;;;;;22.03;12.60;;;3.30;42.10;;;;;;5074880;28;20227;-65
2022/03/20 05:26:06;;;;;;;20.57;11.93;;;3.30;41.90;;;;;;5070416;28;20212;-66
2022/03/20 05:28:33;;;;;;;22.73;12.50;;;3.40;41.80;;;;;;5069431;28;20201;-65
2022/03/20 05:31:00;;;;;;;24.10;12.63;;;3.40;41.70;;;;;;5074342;28;20205;-65
2022/03/20 05:33:29;;;;;;;22.37;12.93;;;3.50;41.60;;;;;;5074172;28;20296;-64
2022/03/20 05:35:56;;;;;;;19.73;12.00;;;3.70;41.50;;;;;;5073899;28;20682;-66
2022/03/20 05:38:23;;;;;;;21.40;12.57;;;3.60;41.20;;;;;;5068435;28;20212;-64
2022/03/20 05:41:43;;;;;;;20.17;11.83;;;3.70;41.10;;;;;;5075411;28;20231;-65
2022/03/20 05:43:40;;;;;;;21.40;11.77;;;3.80;41.00;;;;;;5063870;28;20228;-65
2022/03/20 05:46:08;;;;;;;17.27;11.47;;;3.90;40.80;;;;;;5072436;28;20215;-66
2022/03/20 05:48:37;;;;;;;22.17;12.27;;;3.90;40.60;;;;;;5071112;28;20209;-67
2022/03/20 05:51:04;;;;;;;20.47;11.97;;;4.00;40.30;;;;;;5065162;28;20608;-67
2022/03/20 05:53:31;;;;;;;18.13;11.63;;;4.10;39.80;;;;;;5068361;28;20205;-67
2022/03/20 05:58:43;;;;;;;19.23;12.33;;;4.30;39.50;;;;;;5072407;28;20244;-67
2022/03/20 06:01:10;;;;;;;18.57;12.00;;;4.40;39.20;;;;;;5068629;28;20206;-67
2022/03/20 06:03:37;;;;;;;22.33;12.60;;;4.50;39.10;;;;;;5069157;28;20732;-67
2022/03/20 06:06:06;;;;;;;20.07;12.80;;;4.60;39.00;;;;;;5067885;28;20208;-67
2022/03/20 06:08:35;;;;;;;18.60;11.60;;;4.70;38.90;;;;;;5067637;28;20202;-69
2022/03/20 06:11:03;;;;;;;18.50;11.07;;;4.70;38.70;;;;;;5062009;28;20215;-66
2022/03/20 06:13:31;;;;;;;17.87;10.43;;;4.90;38.30;;;;;;5070578;28;20217;-65
2022/03/20 06:15:58;;;;;;;16.53;10.23;;;4.90;37.90;;;;;;5062097;28;20201;-65
2022/03/20 06:18:25;;;;;;;17.33;9.90;;;5.00;37.50;;;;;;5071569;28;20618;-66
2022/03/20 06:20:52;;;;;;;13.73;9.37;;;5.20;37.20;;;;;;5066499;28;20229;-65
2022/03/20 06:23:19;;;;;;;14.33;9.27;;;5.40;37.00;;;;;;5075653;28;20258;-67
2022/03/20 06:25:46;;;;;;;14.37;8.97;;;5.50;36.60;;;;;;5064747;28;20206;-63
2022/03/20 06:28:15;;;;;;;15.57;8.77;;;5.70;36.50;;;;;;5062766;28;20201;-65
2022/03/20 06:30:43;;;;;;;17.40;9.60;;;5.80;35.50;;;;;;5069601;28;20217;-65
2022/03/20 06:33:09;;;;;;;13.00;8.57;;;5.80;35.40;;;;;;5074543;28;20212;-65
2022/03/20 06:35:36;;;;;;;14.07;8.57;;;5.80;35.40;;;;;;5066422;28;20237;-71
2022/03/20 06:38:05;;;;;;;14.37;9.13;;;5.80;35.50;;;;;;5065026;28;20328;-70
2022/03/20 06:40:32;;;;;;;12.00;7.73;;;5.90;35.90;;;;;;5059246;28;20292;-69
2022/03/20 06:42:58;;;;;;;15.53;9.40;;;6.20;35.40;;;;;;5066121;28;20291;-68
2022/03/20 06:45:27;;;;;;;11.33;8.37;;;6.80;35.10;;;;;;5067102;28;20201;-68
2022/03/20 06:47:54;;;;;;;11.93;7.57;;;7.10;34.00;;;;;;5069066;28;20206;-67
2022/03/20 06:50:21;;;;;;;17.03;9.13;;;7.10;33.40;;;;;;5067773;28;20206;-68
2022/03/20 06:52:48;;;;;;;14.20;8.00;;;7.00;33.40;;;;;;5074125;28;20205;-69
2022/03/20 06:55:16;;;;;;;13.10;8.40;;;6.90;33.50;;;;;;5070745;28;20265;-68
2022/03/20 06:57:44;;;;;;;12.80;8.87;;;6.80;33.50;;;;;;5072741;28;20636;-69
2022/03/20 07:00:13;;;;;;;13.87;8.27;;;6.70;33.80;;;;;;5069014;28;20248;-71
2022/03/20 07:02:41;;;;;;;14.17;9.17;;;6.70;33.90;;;;;;5078574;28;20239;-71
2022/03/20 07:05:09;;;;;;;15.23;9.13;;;6.60;33.80;;;;;;5077904;28;20292;-69
2022/03/20 07:07:36;;;;;;;15.70;9.47;;;6.60;34.10;;;;;;5074239;28;20745;-70
2022/03/20 07:10:06;;;;;;;16.13;9.23;;;6.60;34.10;;;;;;5077189;28;20326;-70
2022/03/20 07:12:33;;;;;;;14.13;9.33;;;6.60;34.70;;;;;;5067005;28;20205;-70
2022/03/20 07:15:00;;;;;;;13.97;9.53;;;6.60;34.30;;;;;;5077947;28;20558;-68
2022/03/20 07:17:27;;;;;;;14.47;9.80;;;6.60;34.20;;;;;;5078603;28;20227;-68
2022/03/20 07:19:55;;;;;;;14.53;10.00;;;6.70;34.30;;;;;;5078139;28;20274;-69
2022/03/20 07:22:23;;;;;;;14.70;11.27;;;6.80;34.50;;;;;;5076186;28;20448;-69
2022/03/20 07:24:51;;;;;;;14.07;10.00;;;6.90;34.40;;;;;;5077612;28;20212;-66
2022/03/20 07:30:04;;;;;;;18.33;10.93;;;7.10;34.20;;;;;;5073848;28;20235;-68
2022/03/20 07:32:31;;;;;;;16.57;10.10;;;7.30;34.30;;;;;;5069139;28;20205;-69
2022/03/20 07:34:59;;;;;;;13.37;9.30;;;7.50;34.80;;;;;;5075733;28;20645;-68
2022/03/20 07:37:26;;;;;;;18.47;10.57;;;7.60;33.90;;;;;;5070506;28;20288;-67
2022/03/20 07:39:53;;;;;;;18.30;10.67;;;7.80;33.80;;;;;;5071053;28;20283;-67
2022/03/20 07:42:23;;;;;;;15.67;9.83;;;7.90;33.70;;;;;;5070412;28;20766;-71
2022/03/20 07:44:50;;;;;;;14.53;9.80;;;8.10;33.50;;;;;;5065542;28;20216;-69
2022/03/20 07:47:19;;;;;;;15.53;9.40;;;8.20;33.20;;;;;;5071040;28;20209;-70
2022/03/20 07:49:46;;;;;;;15.50;9.40;;;8.30;32.90;;;;;;5073160;28;21016;-68
2022/03/20 07:52:14;;;;;;;14.73;9.50;;;8.40;32.70;;;;;;5074305;28;20212;-67
2022/03/20 07:54:42;;;;;;;13.93;9.57;;;8.40;33.10;;;;;;5064304;28;20566;-69
2022/03/20 07:57:09;;;;;;;15.63;9.27;;;8.50;32.60;;;;;;5068240;28;20217;-67
2022/03/20 07:59:36;;;;;;;13.10;8.63;;;8.60;32.50;;;;;;5072025;28;20205;-69
2022/03/20 08:02:03;;;;;;;15.47;9.60;;;8.70;32.30;;;;;;5072215;28;20288;-70
2022/03/20 08:04:31;;;;;;;16.20;9.33;;;8.80;31.90;;;;;;5066889;28;20719;-70
2022/03/20 08:06:58;;;;;;;13.60;9.33;;;8.90;31.80;;;;;;5072920;28;20204;-69
2022/03/20 08:09:27;;;;;;;13.00;8.30;;;8.90;31.80;;;;;;5075377;28;20256;-67
2022/03/20 08:11:55;;;;;;;12.60;8.73;;;9.00;31.90;;;;;;5072136;28;20213;-69
2022/03/20 08:14:23;;;;;;;18.03;9.90;;;8.90;31.20;;;;;;5071869;28;20263;-70
2022/03/20 08:16:50;;;;;;;16.40;10.57;;;9.20;31.50;;;;;;5069935;28;20249;-67
2022/03/20 08:19:21;;;;;;;17.10;10.07;;;9.20;31.50;;;;;;5057515;28;20216;-69
2022/03/20 08:21:49;;;;;;;17.27;9.93;;;9.30;31.50;;;;;;5057729;28;20233;-70
2022/03/20 08:24:16;;;;;;;17.83;11.63;;;9.30;31.70;;;;;;5058808;28;20454;-69
2022/03/20 08:26:45;;;;;;;15.20;9.60;;;9.40;31.80;;;;;;5067155;28;20251;-69
2022/03/20 08:29:13;;;;;;;15.68;10.48;;;9.60;31.70;;;;;;5064320;28;20500;-68
2022/03/20 08:31:44;;;;;;;13.80;10.53;;;9.80;30.80;;;;;;5062301;28;20542;-69
2022/03/20 08:34:11;;;;;;;12.50;8.77;;;9.90;30.30;;;;;;5069461;28;20678;-70
2022/03/20 08:36:38;;;;;;;15.25;9.85;;;10.00;29.50;;;;;;5059863;28;20446;-68
2022/03/20 08:39:05;;;;;;;14.07;9.07;;;10.10;29.50;;;;;;5072024;28;20206;-69
2022/03/20 08:41:33;;;;;;;14.03;9.30;;;10.40;29.70;;;;;;5031177;28;1092093;-65
2022/03/20 08:44:02;;;;;;;15.70;10.63;;;10.40;29.30;;;;;;5069885;28;20462;-68
2022/03/20 08:46:29;;;;;;;15.15;11.02;;;10.60;29.20;;;;;;5072597;28;20445;-67
2022/03/20 08:48:56;;;;;;;16.40;10.25;;;10.60;28.90;;;;;;5074431;28;20453;-68
2022/03/20 08:51:23;;;;;;;14.83;10.30;;;10.70;28.90;;;;;;5071782;28;20288;-69
2022/03/20 08:53:50;;;;;;;14.83;9.53;;;10.80;29.00;;;;;;5074245;28;20225;-69
2022/03/20 08:56:17;;;;;;;12.80;9.03;;;10.90;28.90;;;;;;5076717;28;20244;-71
2022/03/20 08:58:46;;;;;;;15.15;9.98;;;11.10;29.10;;;;;;5069638;28;20465;-70
2022/03/20 09:01:14;;;;;;;12.68;9.20;;;11.20;28.90;;;;;;5075432;28;20482;-69
2022/03/20 09:03:41;;;;;;;13.98;10.65;;;11.40;28.80;;;;;;5066946;28;20958;-69
2022/03/20 09:06:08;;;;;;;13.20;10.27;;;11.50;28.50;;;;;;5069246;28;20505;-68
2022/03/20 09:08:35;;;;;;;12.63;9.77;;;11.60;28.00;;;;;;5065615;28;20504;-70
2022/03/20 09:11:02;;;;;;;12.85;9.48;;;11.70;28.00;;;;;;5067886;28;20976;-69
2022/03/20 09:13:29;;;;;;;11.35;7.85;;;11.80;27.80;;;;;;5070200;28;20446;-69
2022/03/20 09:21:23;;;;;;;12.88;9.63;;;12.40;28.20;;;;;;5065230;28;20435;-71
2022/03/20 09:23:50;;;;;;;11.90;8.00;;;14.00;29.10;;;;;;5070353;28;20208;-73
2022/03/20 09:26:17;;;;;;;10.65;7.60;;;16.90;26.90;;;;;;5066878;28;20290;-71
2022/03/20 09:28:45;;;;;;;9.30;7.68;;;20.10;24.80;;;;;;5057345;28;20233;-71
2022/03/20 09:31:13;;;;;;;7.90;6.93;;;23.50;23.90;;;;;;5071916;28;20211;-73
2022/03/20 09:33:41;;;;;;;8.63;7.40;;;26.40;21.40;;;;;;5064549;28;20685;-69
2022/03/20 09:36:08;;;;;;;10.20;7.18;;;28.40;20.10;;;;;;5070509;28;20280;-72
2022/03/20 09:38:36;;;;;;;7.30;6.50;;;30.10;19.20;;;;;;5065444;28;20309;-69
2022/03/20 09:41:07;;;;;;;9.90;7.32;;;31.70;18.70;;;;;;5067492;28;20235;-69
2022/03/20 09:43:34;;;;;;;9.43;6.78;;;33.10;17.80;;;;;;5071046;28;20628;-70
2022/03/20 09:46:02;;;;;;;7.75;6.43;;;34.20;17.40;;;;;;5068443;28;20266;-70
2022/03/20 09:48:29;;;;;;;9.43;6.60;;;34.80;16.80;;;;;;5072564;28;20304;-70
2022/03/20 09:50:58;;;;;;;8.20;6.70;;;35.10;16.40;;;;;;5073878;28;20654;-70
2022/03/20 09:53:26;;;;;;;9.73;7.20;;;35.50;16.20;;;;;;5071117;28;20201;-71
2022/03/20 09:55:54;;;;;;;8.90;7.55;;;36.40;16.20;;;;;;5073965;28;20713;-73
2022/03/20 09:58:24;;;;;;;10.75;8.32;;;36.50;15.70;;;;;;5058536;28;20222;-71
2022/03/20 10:00:51;;;;;;;8.32;6.88;;;36.60;16.40;;;;;;5072613;28;20682;-73
2022/03/20 10:03:20;;;;;;;10.65;6.80;;;36.80;15.50;;;;;;5073122;28;20210;-71
2022/03/20 10:06:05;;;;;;;7.97;7.18;;;35.80;15.10;;;;;;5064683;28;20224;-71
2022/03/20 10:08:32;;;;;;;9.57;7.35;;;34.80;15.50;;;;;;5067405;28;20236;-71
2022/03/20 10:11:13;;;;;;;8.52;7.38;;;34.50;15.50;;;;;;5073801;28;20315;-71
2022/03/20 10:13:39;;;;;;;9.30;7.43;;;34.60;15.90;;;;;;5060073;28;20202;-71
2022/03/20 10:16:17;;;;;;;8.95;7.57;;;35.30;16.30;;;;;;5064871;28;20206;-72
2022/03/20 10:18:44;;;;;;;9.02;6.90;;;36.10;15.50;;;;;;5059321;28;20375;-69
2022/03/20 10:21:12;;;;;;;7.10;6.40;;;36.10;15.30;;;;;;5053154;28;20225;-69
2022/03/20 10:23:41;;;;;;;7.28;6.57;;;36.10;15.20;;;;;;5065652;28;20714;-71
2022/03/20 10:26:11;;;;;;;7.10;6.35;;;36.10;15.30;;;;;;5065173;28;20220;-72
2022/03/20 10:28:40;;;;;;;9.93;6.72;;;35.90;15.20;;;;;;5066812;28;20287;-70
2022/03/20 10:31:09;;;;;;;8.52;6.80;;;36.30;15.30;;;;;;5073133;28;20473;-71
2022/03/20 10:33:40;;;;;;;7.00;6.20;;;36.80;15.00;;;;;;5072452;28;20260;-69
2022/03/20 10:36:14;;;;;;;7.95;7.10;;;37.20;15.10;;;;;;5072497;28;20201;-69
2022/03/20 10:38:41;;;;;;;9.25;6.55;;;37.20;15.00;;;;;;5065490;28;20237;-71
2022/03/20 10:41:23;;;;;;;9.18;8.27;;;37.10;14.90;;;;;;5069388;28;20628;-69
2022/03/20 10:43:51;;;;;;;8.80;7.07;;;36.70;15.00;;;;;;5066192;28;20202;-70
2022/03/20 10:46:20;;;;;;;7.45;6.65;;;36.10;15.00;;;;;;5073529;28;20630;-71
2022/03/20 10:48:48;;;;;;;7.70;6.90;;;35.40;14.90;;;;;;5073691;28;20634;-70
2022/03/20 10:51:37;;;;;;;8.70;6.90;;;35.70;15.20;;;;;;5073230;28;20610;-68
2022/03/20 10:54:06;;;;;;;7.40;6.70;;;35.60;15.20;;;;;;5074311;28;20293;-72
2022/03/20 10:56:33;;;;;;;7.20;6.30;;;36.20;15.30;;;;;;5068816;28;20237;-73
2022/03/20 10:59:02;;;;;;;7.63;6.80;;;35.90;14.70;;;;;;5072774;28;20651;-70
2022/03/20 11:01:36;;;;;;;7.35;6.65;;;35.20;15.00;;;;;;5073237;28;20212;-70
2022/03/20 11:04:04;;;;;;;9.63;6.78;;;34.90;15.50;;;;;;5064865;28;20273;-72
2022/03/20 11:06:32;;;;;;;10.25;6.65;;;35.40;15.20;;;;;;5070333;28;20209;-71
2022/03/20 11:09:02;;;;;;;8.32;6.80;;;35.00;15.10;;;;;;5065255;28;20198;-74
2022/03/20 11:11:31;;;;;;;8.90;6.72;;;34.70;15.50;;;;;;5063996;28;20205;-71
2022/03/20 11:14:00;;;;;;;7.63;6.10;;;35.10;15.60;;;;;;5070128;28;20220;-70
2022/03/20 11:16:29;;;;;;;8.02;6.57;;;35.60;15.60;;;;;;5066197;28;20600;-71
2022/03/20 11:18:59;;;;;;;7.18;6.40;;;36.20;15.30;;;;;;5063625;28;20225;-70
2022/03/20 11:21:29;;;;;;;7.55;6.57;;;36.00;14.90;;;;;;5066705;28;20255;-70
2022/03/20 11:23:58;;;;;;;7.93;6.75;;;35.00;15.10;;;;;;5072650;28;20292;-70
2022/03/20 11:26:28;;;;;;;8.70;6.60;;;34.50;15.60;;;;;;5072195;28;20205;-71
2022/03/20 11:29:00;;;;;;;7.65;6.93;;;33.90;15.30;;;;;;5073249;28;20201;-73
2022/03/20 11:31:28;;;;;;;8.95;6.38;;;33.70;16.00;;;;;;5067196;28;20201;-71
2022/03/20 11:33:56;;;;;;;8.60;6.45;;;34.40;15.70;;;;;;5062982;28;20667;-69
2022/03/20 11:36:24;;;;;;;7.30;6.60;;;33.90;15.40;;;;;;5070480;28;20733;-70
2022/03/20 11:39:12;;;;;;;8.73;7.57;;;32.70;15.80;;;;;;5063566;28;20234;-71
2022/03/20 11:41:40;;;;;;;7.93;6.80;;;31.40;16.50;;;;;;5075103;28;20304;-72
2022/03/20 11:44:21;;;;;;;9.50;7.40;;;30.10;16.50;;;;;;5077597;28;20211;-70
2022/03/20 11:47:08;;;;;;;7.28;6.50;;;29.20;17.00;;;;;;5066602;28;20254;-71
2022/03/20 11:49:35;;;;;;;7.45;6.75;;;28.60;17.10;;;;;;5077234;28;20251;-70
2022/03/20 11:52:07;;;;;;;7.43;6.65;;;27.80;17.90;;;;;;5075727;28;20288;-70
2022/03/20 11:54:55;;;;;;;7.85;6.88;;;27.30;17.80;;;;;;5075076;28;20286;-68
2022/03/20 11:57:41;;;;;;;8.35;6.45;;;26.80;18.20;;;;;;5070844;28;20291;-70
2022/03/20 12:00:18;;;;;;;8.50;6.15;;;26.50;17.80;;;;;;5075072;28;20201;-69
2022/03/20 12:02:53;;;;;;;10.10;7.47;;;25.80;18.40;;;;;;5075419;28;20209;-68
2022/03/20 12:05:32;;;;;;;6.90;6.20;;;25.10;18.20;;;;;;5074472;28;20264;-67
2022/03/20 12:08:10;;;;;;;7.13;6.15;;;24.50;18.90;;;;;;5056542;28;20214;-70
2022/03/20 12:10:51;;;;;;;8.88;6.00;;;23.80;18.40;;;;;;5069677;28;20673;-69
2022/03/20 12:13:26;;;;;;;7.30;6.20;;;22.70;19.00;;;;;;5063949;28;20255;-69
2022/03/20 12:15:53;;;;;;;7.70;6.53;;;21.80;19.50;;;;;;5064960;28;20197;-71
2022/03/20 12:18:20;;;;;;;8.48;6.75;;;21.20;19.80;;;;;;5068588;28;20609;-68
2022/03/20 12:20:53;;;;;;;8.85;6.13;;;21.00;19.90;;;;;;5073871;28;20307;-68
2022/03/20 12:23:47;;;;;;;9.75;6.60;;;20.70;19.80;;;;;;5076023;28;20209;-70
2022/03/20 12:26:33;;;;;;;7.22;6.18;;;20.20;20.60;;;;;;5041170;28;20597;-71
2022/03/20 12:29:29;;;;;;;7.03;5.80;;;19.90;20.50;;;;;;5074906;28;20326;-71
2022/03/20 12:31:58;;;;;;;8.65;6.68;;;19.70;20.50;;;;;;5072078;28;20673;-71
2022/03/20 12:34:26;;;;;;;8.63;6.22;;;19.40;20.80;;;;;;5069408;28;20235;-71
2022/03/20 12:36:53;;;;;;;9.65;6.47;;;19.20;21.00;;;;;;5071654;28;20205;-71
2022/03/20 12:39:54;;;;;;;7.40;6.13;;;18.90;21.00;;;;;;5062895;28;20710;-70
2022/03/20 12:42:23;;;;;;;7.03;6.05;;;18.60;21.30;;;;;;5056549;28;20229;-71
2022/03/20 12:44:52;;;;;;;9.00;5.78;;;18.40;22.00;;;;;;5071437;28;20678;-73
2022/03/20 12:47:19;;;;;;;7.63;6.10;;;18.30;22.20;;;;;;5073101;28;20678;-72
2022/03/20 12:49:48;;;;;;;7.97;5.88;;;18.10;22.70;;;;;;5075211;28;20205;-72
2022/03/20 12:52:18;;;;;;;8.23;5.75;;;18.00;22.60;;;;;;5068422;28;20270;-73
2022/03/20 12:54:56;;;;;;;8.23;5.72;;;18.30;21.90;;;;;;5064154;28;20643;-73
2022/03/20 12:57:40;;;;;;;6.53;5.82;;;18.40;21.40;;;;;;5071615;28;20213;-73
2022/03/20 13:00:09;;;;;;;8.00;6.32;;;18.20;21.30;;;;;;5061463;28;20312;-72
2022/03/20 13:03:11;;;;;;;7.88;6.00;;;17.90;21.60;;;;;;5077955;28;20291;-73
2022/03/20 13:05:39;;;;;;;10.07;6.18;;;17.60;21.80;;;;;;5073456;28;20696;-72
2022/03/20 13:08:07;;;;;;;10.13;5.97;;;17.40;22.60;;;;;;5067450;28;20197;-72
2022/03/20 13:10:37;;;;;;;6.80;6.10;;;17.40;22.70;;;;;;5061259;28;20264;-70
2022/03/20 13:13:07;;;;;;;7.30;5.82;;;17.60;22.10;;;;;;5063616;28;20202;-74
2022/03/20 13:15:36;;;;;;;6.75;5.68;;;17.50;22.20;;;;;;5065285;28;20714;-68
2022/03/20 13:18:05;;;;;;;8.13;5.55;;;17.40;22.20;;;;;;5063013;28;20237;-68